createdAt,value
2023-03-27T00:01:24.711Z,11.17
2023-03-27T00:03:53.969Z,11.01
2023-03-27T00:06:22.099Z,10.88
2023-03-27T00:08:53.985Z,10.83
2023-03-27T00:11:25.210Z,10.86
2023-03-27T00:13:54.888Z,11.18
2023-03-27T00:16:24.249Z,11.06
2023-03-27T00:18:51.717Z,10.87
2023-03-27T00:21:19.657Z,11.11
2023-03-27T00:23:47.031Z,10.96
2023-03-27T00:26:14.621Z,11.72
2023-03-27T00:28:42.256Z,12.07
2023-03-27T00:31:13.568Z,11.85
2023-03-27T00:33:41.547Z,11.83
2023-03-27T00:36:10.045Z,11.73
2023-03-27T00:38:37.204Z,11.77
2023-03-27T00:41:05.112Z,11.82
2023-03-27T00:43:34.491Z,11.38
2023-03-27T00:46:16.161Z,11.61
2023-03-27T00:48:47.409Z,11.52
2023-03-27T00:51:15.957Z,12.02
2023-03-27T00:53:44.060Z,11.44
2023-03-27T00:56:11.685Z,11.51
2023-03-27T00:58:53.106Z,11.64
2023-03-27T01:01:24.087Z,11.12
2023-03-27T01:03:52.804Z,11.23
2023-03-27T01:06:21.585Z,11.71
2023-03-27T01:08:48.413Z,11.83
2023-03-27T01:11:37.317Z,11.62
2023-03-27T01:14:22.458Z,11.68
2023-03-27T01:17:14.560Z,11.91
2023-03-27T01:19:57.026Z,12.05
2023-03-27T01:22:32.748Z,11.70
2023-03-27T01:25:27.854Z,11.51
2023-03-27T01:28:20.999Z,11.32
2023-03-27T01:30:52.680Z,11.77
2023-03-27T01:34:03.835Z,11.93
2023-03-27T01:37:08.167Z,11.80
2023-03-27T01:40:08.191Z,11.92
2023-03-27T01:42:47.528Z,11.95
2023-03-27T01:45:23.437Z,11.79
2023-03-27T01:48:17.377Z,11.82
2023-03-27T01:50:56.893Z,12.03
2023-03-27T01:53:33.627Z,12.18
2023-03-27T01:56:26.898Z,11.97
2023-03-27T01:58:59.841Z,12.01
2023-03-27T02:01:37.971Z,12.02
2023-03-27T02:04:11.381Z,12.16
2023-03-27T02:06:47.663Z,12.11
2023-03-27T02:09:49.431Z,12.34
2023-03-27T02:12:24.776Z,12.34
2023-03-27T02:15:23.981Z,11.78
2023-03-27T02:17:53.661Z,12.20
2023-03-27T02:20:21.376Z,12.55
2023-03-27T02:22:51.569Z,12.66
2023-03-27T02:25:25.694Z,12.62
2023-03-27T02:28:12.826Z,12.62
2023-03-27T02:31:32.632Z,12.49
2023-03-27T02:34:05.281Z,12.80
2023-03-27T02:36:38.833Z,13.12
2023-03-27T02:39:19.051Z,12.97
2023-03-27T02:42:01.034Z,13.06
2023-03-27T02:44:51.979Z,13.20
2023-03-27T02:47:18.827Z,13.24
2023-03-27T02:50:04.484Z,12.59
2023-03-27T02:52:40.009Z,12.42
2023-03-27T02:55:14.457Z,12.85
2023-03-27T02:57:52.334Z,12.49
2023-03-27T03:00:25.889Z,12.74
2023-03-27T03:03:33.075Z,12.65
2023-03-27T03:06:00.192Z,13.08
2023-03-27T03:08:30.793Z,13.12
2023-03-27T03:11:03.591Z,13.02
2023-03-27T03:13:30.932Z,12.48
2023-03-27T03:15:58.617Z,12.28
2023-03-27T03:18:25.450Z,12.33
2023-03-27T03:20:55.018Z,12.50
2023-03-27T03:23:26.374Z,12.48
2023-03-27T03:25:57.014Z,12.35
2023-03-27T03:28:27.579Z,12.02
2023-03-27T03:30:57.362Z,12.01
2023-03-27T03:33:26.254Z,11.98
2023-03-27T03:35:53.590Z,12.22
2023-03-27T03:38:25.177Z,12.25
2023-03-27T03:40:56.510Z,12.15
2023-03-27T03:43:25.604Z,11.76
2023-03-27T03:45:52.782Z,12.23
2023-03-27T03:48:20.661Z,12.07
2023-03-27T03:50:49.521Z,11.96
2023-03-27T03:53:21.879Z,12.03
2023-03-27T03:55:52.654Z,11.90
2023-03-27T03:58:20.291Z,11.78
2023-03-27T04:00:50.061Z,11.64
2023-03-27T04:03:59.547Z,11.96
2023-03-27T04:06:26.701Z,12.22
2023-03-27T04:08:56.110Z,12.27
2023-03-27T04:11:24.734Z,12.51
2023-03-27T04:13:52.900Z,12.56
2023-03-27T04:16:36.843Z,12.45
2023-03-27T04:19:06.319Z,12.71
2023-03-27T04:21:36.643Z,12.68
2023-03-27T04:24:03.936Z,12.80
2023-03-27T04:26:31.408Z,12.85
2023-03-27T04:29:02.541Z,12.58
2023-03-27T04:31:30.502Z,12.52
2023-03-27T04:33:57.698Z,12.85
2023-03-27T04:36:25.741Z,12.79
2023-03-27T04:38:52.684Z,13.07
2023-03-27T04:41:19.528Z,13.25
2023-03-27T04:43:48.446Z,13.03
2023-03-27T04:46:15.264Z,13.40
2023-03-27T04:48:44.027Z,13.68
2023-03-27T04:51:10.999Z,13.71
2023-03-27T04:53:38.108Z,13.37
2023-03-27T04:56:06.293Z,13.12
2023-03-27T04:58:36.693Z,13.45
2023-03-27T05:01:05.847Z,13.17
2023-03-27T05:03:35.298Z,13.12
2023-03-27T05:06:04.321Z,13.34
2023-03-27T05:08:31.760Z,12.98
2023-03-27T05:10:58.979Z,13.20
2023-03-27T05:13:26.136Z,13.42
2023-03-27T05:16:17.386Z,13.62
2023-03-27T05:18:45.301Z,13.36
2023-03-27T05:21:13.522Z,13.49
2023-03-27T05:23:40.802Z,13.36
2023-03-27T05:26:07.818Z,13.26
2023-03-27T05:28:34.839Z,13.86
2023-03-27T05:31:34.342Z,13.65
2023-03-27T05:34:03.167Z,13.51
2023-03-27T05:36:30.475Z,13.67
2023-03-27T05:38:57.998Z,13.77
2023-03-27T05:41:25.081Z,14.05
2023-03-27T05:43:52.457Z,14.15
2023-03-27T05:46:21.388Z,14.16
2023-03-27T05:48:48.765Z,14.11
2023-03-27T05:51:16.106Z,13.87
2023-03-27T05:53:43.193Z,13.79
2023-03-27T05:56:10.628Z,14.34
2023-03-27T05:58:37.549Z,14.24
2023-03-27T06:01:05.030Z,14.12
2023-03-27T06:03:35.760Z,14.13
2023-03-27T06:06:11.319Z,13.89
2023-03-27T06:08:38.864Z,14.27
2023-03-27T06:11:10.391Z,14.42
2023-03-27T06:13:38.196Z,14.54
2023-03-27T06:16:05.989Z,14.16
2023-03-27T06:18:33.756Z,14.50
2023-03-27T06:21:00.841Z,14.96
2023-03-27T06:23:27.840Z,14.80
2023-03-27T06:25:54.726Z,14.91
2023-03-27T06:28:21.824Z,15.48
2023-03-27T06:30:49.970Z,14.90
2023-03-27T06:33:16.888Z,14.82
2023-03-27T06:35:52.891Z,14.88
2023-03-27T06:38:20.945Z,14.66
2023-03-27T06:40:47.908Z,14.70
2023-03-27T06:43:18.202Z,15.07
2023-03-27T06:45:49.282Z,14.93
2023-03-27T06:48:21.339Z,14.79
2023-03-27T06:50:50.914Z,14.61
2023-03-27T06:55:49.696Z,14.64
2023-03-27T06:58:19.449Z,14.64
2023-03-27T07:00:49.016Z,14.43
2023-03-27T07:03:18.258Z,14.70
2023-03-27T07:05:49.314Z,14.57
2023-03-27T07:08:24.921Z,14.71
2023-03-27T07:11:10.069Z,14.67
2023-03-27T07:13:38.355Z,14.86
2023-03-27T07:16:05.866Z,14.55
2023-03-27T07:18:32.724Z,15.12
2023-03-27T07:21:00.053Z,15.51
2023-03-27T07:23:27.450Z,15.26
2023-03-27T07:25:59.098Z,15.32
2023-03-27T07:28:26.295Z,15.27
2023-03-27T07:30:53.766Z,15.31
2023-03-27T07:33:20.729Z,15.02
2023-03-27T07:35:51.039Z,15.13
2023-03-27T07:38:21.201Z,15.58
2023-03-27T07:40:49.816Z,15.36
2023-03-27T07:43:16.602Z,15.43
2023-03-27T07:45:43.616Z,15.21
2023-03-27T07:48:17.504Z,15.09
2023-03-27T07:50:45.380Z,15.02
2023-03-27T07:53:33.319Z,15.25
2023-03-27T07:56:00.034Z,15.28
2023-03-27T07:58:27.220Z,15.25
2023-03-27T08:00:54.465Z,15.22
2023-03-27T08:03:23.490Z,15.09
2023-03-27T08:05:56.103Z,15.51
2023-03-27T08:08:24.753Z,15.50
2023-03-27T08:10:54.426Z,15.82
2023-03-27T08:13:21.213Z,15.72
2023-03-27T08:15:48.548Z,15.64
2023-03-27T08:18:15.287Z,15.94
2023-03-27T08:20:42.522Z,15.94
2023-03-27T08:23:10.062Z,15.91
2023-03-27T08:25:36.765Z,16.08
2023-03-27T08:28:03.436Z,16.34
2023-03-27T08:30:30.789Z,16.13
2023-03-27T08:32:58.600Z,16.23
2023-03-27T08:35:25.441Z,15.93
2023-03-27T08:37:54.621Z,16.04
2023-03-27T08:40:28.155Z,16.20
2023-03-27T08:43:00.181Z,16.15
2023-03-27T08:45:32.166Z,15.98
2023-03-27T08:48:08.442Z,15.89
2023-03-27T08:50:41.383Z,15.75
2023-03-27T08:53:35.087Z,15.90
2023-03-27T08:56:03.220Z,16.26
2023-03-27T08:58:30.695Z,16.18
2023-03-27T09:01:05.946Z,16.12
2023-03-27T09:03:41.069Z,16.28
2023-03-27T09:06:20.999Z,16.20
2023-03-27T09:09:24.584Z,16.62
2023-03-27T09:12:24.104Z,16.52
2023-03-27T09:15:00.754Z,16.71
2023-03-27T09:17:34.967Z,16.66
2023-03-27T09:20:22.040Z,16.29
2023-03-27T09:22:54.385Z,16.57
2023-03-27T09:25:34.674Z,16.33
2023-03-27T09:28:03.900Z,16.14
2023-03-27T09:30:33.802Z,16.32
2023-03-27T09:33:06.053Z,16.28
2023-03-27T09:35:35.780Z,15.93
2023-03-27T09:38:17.629Z,15.96
2023-03-27T09:41:02.990Z,15.91
2023-03-27T09:43:43.220Z,15.86
2023-03-27T09:46:13.095Z,15.83
2023-03-27T09:48:50.770Z,15.93
2023-03-27T09:51:37.773Z,16.08
2023-03-27T09:54:05.755Z,16.03
2023-03-27T09:56:37.767Z,15.94
2023-03-27T09:59:38.916Z,16.05
2023-03-27T10:02:23.009Z,16.08
2023-03-27T10:05:22.644Z,16.06
2023-03-27T10:07:49.420Z,16.01
2023-03-27T10:10:21.288Z,16.33
2023-03-27T10:12:56.444Z,15.95
2023-03-27T10:15:37.085Z,16.20
2023-03-27T10:18:20.887Z,15.90
2023-03-27T10:20:52.858Z,15.96
2023-03-27T10:23:28.648Z,16.17
2023-03-27T10:26:01.726Z,16.33
2023-03-27T10:28:34.828Z,16.46
2023-03-27T10:31:05.767Z,16.52
2023-03-27T10:33:35.868Z,16.30
2023-03-27T10:36:06.873Z,16.42
2023-03-27T10:38:37.053Z,16.35
2023-03-27T10:41:14.463Z,16.40
2023-03-27T10:43:43.980Z,16.11
2023-03-27T10:46:15.146Z,16.60
2023-03-27T10:48:52.681Z,16.23
2023-03-27T10:51:46.513Z,16.23
2023-03-27T10:54:37.489Z,16.29
2023-03-27T10:57:15.180Z,16.26
2023-03-27T11:00:20.469Z,16.18
2023-03-27T11:03:00.310Z,16.21
2023-03-27T11:05:32.012Z,16.04
2023-03-27T11:08:11.616Z,16.25
2023-03-27T11:10:42.597Z,16.24
2023-03-27T11:13:22.895Z,16.55
2023-03-27T11:15:55.938Z,16.32
2023-03-27T11:18:26.176Z,16.46
2023-03-27T11:21:13.036Z,16.15
2023-03-27T11:23:52.725Z,16.14
2023-03-27T11:26:26.196Z,15.69
2023-03-27T11:29:20.641Z,15.90
2023-03-27T11:31:51.558Z,15.93
2023-03-27T11:34:34.538Z,15.45
2023-03-27T11:37:13.174Z,15.24
2023-03-27T11:39:48.463Z,14.74
2023-03-27T11:42:21.070Z,14.63
2023-03-27T11:44:51.558Z,14.43
2023-03-27T11:47:42.194Z,14.40
2023-03-27T11:50:36.201Z,14.10
2023-03-27T11:53:06.601Z,14.15
2023-03-27T11:56:01.028Z,13.69
2023-03-27T11:58:44.083Z,13.54
2023-03-27T12:01:17.756Z,13.33
2023-03-27T12:04:00.426Z,13.58
2023-03-27T12:06:33.919Z,13.07
2023-03-27T12:09:08.087Z,13.28
2023-03-27T12:11:42.538Z,13.36
2023-03-27T12:14:40.493Z,13.28
2023-03-27T12:17:11.138Z,13.41
2023-03-27T12:19:53.494Z,13.11
2023-03-27T12:22:54.032Z,12.95
2023-03-27T12:25:36.450Z,12.40
2023-03-27T12:28:27.066Z,12.06
2023-03-27T12:31:16.442Z,11.70
2023-03-27T12:34:16.283Z,11.32
2023-03-27T12:36:48.558Z,11.53
2023-03-27T12:42:14.336Z,11.35
2023-03-27T12:45:14.473Z,11.32
2023-03-27T12:47:46.114Z,10.69
2023-03-27T12:50:28.536Z,11.61
2023-03-27T12:52:57.065Z,11.43
2023-03-27T12:58:37.567Z,11.76
2023-03-27T13:01:09.403Z,11.53
2023-03-27T13:04:09.237Z,11.39
2023-03-27T13:06:44.033Z,11.02
2023-03-27T13:09:24.649Z,11.41
2023-03-27T13:12:26.440Z,11.49
2023-03-27T13:15:21.532Z,11.73
2023-03-27T13:18:23.652Z,12.05
2023-03-27T13:21:16.814Z,11.75
2023-03-27T13:23:55.187Z,11.34
2023-03-27T13:26:48.817Z,11.81
2023-03-27T13:29:19.843Z,11.98
2023-03-27T13:31:47.003Z,11.66
2023-03-27T13:34:41.965Z,11.69
2023-03-27T13:37:11.810Z,11.90
2023-03-27T13:39:56.924Z,11.77
2023-03-27T13:42:50.160Z,11.76
2023-03-27T13:45:47.154Z,11.65
2023-03-27T13:48:19.456Z,11.72
2023-03-27T13:51:01.986Z,11.49
2023-03-27T13:53:53.077Z,11.72
2023-03-27T13:56:44.306Z,11.49
2023-03-27T13:59:40.334Z,11.34
2023-03-27T14:02:18.927Z,11.83
2023-03-27T14:04:46.124Z,11.97
2023-03-27T14:07:37.256Z,11.97
2023-03-27T14:10:17.442Z,11.92
2023-03-27T14:12:53.595Z,11.60
2023-03-27T14:15:42.504Z,11.81
2023-03-27T14:18:12.767Z,12.68
2023-03-27T14:20:46.066Z,12.68
2023-03-27T14:23:19.477Z,12.41
2023-03-27T14:25:53.822Z,12.83
2023-03-27T14:28:33.397Z,12.35
2023-03-27T14:31:06.208Z,12.50
2023-03-27T14:33:34.288Z,12.46
2023-03-27T14:36:05.635Z,12.31
2023-03-27T14:38:35.766Z,11.96
2023-03-27T14:41:17.576Z,12.03
2023-03-27T14:43:52.715Z,11.92
2023-03-27T14:46:21.609Z,12.05
2023-03-27T14:48:53.386Z,12.25
2023-03-27T14:51:27.274Z,12.39
2023-03-27T14:54:01.971Z,12.34
2023-03-27T14:56:37.931Z,12.17
2023-03-27T14:59:12.560Z,12.35
2023-03-27T15:01:41.035Z,12.21
2023-03-27T15:04:11.423Z,12.05
2023-03-27T15:06:39.254Z,12.12
2023-03-27T15:09:14.484Z,11.44
2023-03-27T15:11:44.799Z,12.05
2023-03-27T15:14:18.652Z,11.74
2023-03-27T15:16:55.538Z,11.80
2023-03-27T15:19:28.743Z,11.38
2023-03-27T15:22:01.137Z,11.49
2023-03-27T15:24:43.585Z,11.64
2023-03-27T15:27:27.435Z,12.09
2023-03-27T15:30:00.324Z,11.94
2023-03-27T15:32:52.576Z,11.65
2023-03-27T15:35:27.983Z,12.10
2023-03-27T15:37:56.939Z,11.91
2023-03-27T15:40:42.619Z,11.69
2023-03-27T15:43:12.710Z,11.90
2023-03-27T15:45:56.726Z,11.87
2023-03-27T15:48:35.674Z,12.50
2023-03-27T15:51:04.499Z,12.17
2023-03-27T15:53:36.576Z,12.57
2023-03-27T15:56:13.892Z,11.81
2023-03-27T15:58:48.324Z,12.10
2023-03-27T16:01:28.558Z,12.25
2023-03-27T16:04:02.436Z,11.81
2023-03-27T16:06:37.420Z,12.21
2023-03-27T16:09:10.572Z,12.11
2023-03-27T16:11:45.725Z,12.10
2023-03-27T16:14:41.304Z,12.68
2023-03-27T16:17:20.626Z,12.49
2023-03-27T16:19:55.208Z,12.19
2023-03-27T16:22:35.789Z,12.01
2023-03-27T16:25:07.953Z,12.24
2023-03-27T16:27:45.172Z,11.89
2023-03-27T16:30:32.897Z,12.08
2023-03-27T16:33:02.967Z,11.94
2023-03-27T16:35:34.790Z,11.26
2023-03-27T16:38:02.086Z,11.19
2023-03-27T16:40:28.909Z,11.48
2023-03-27T16:42:55.936Z,11.32
2023-03-27T16:45:23.081Z,11.33
2023-03-27T16:47:53.072Z,11.57
2023-03-27T16:50:23.435Z,11.22
2023-03-27T16:52:51.313Z,11.27
2023-03-27T16:55:18.251Z,10.92
2023-03-27T16:57:47.011Z,10.64
2023-03-27T17:00:15.761Z,10.71
2023-03-27T17:02:45.511Z,10.82
2023-03-27T17:05:15.065Z,10.48
2023-03-27T17:07:42.004Z,10.79
2023-03-27T17:10:10.608Z,10.52
2023-03-27T17:12:37.906Z,10.79
2023-03-27T17:15:05.166Z,10.70
2023-03-27T17:17:32.221Z,10.88
2023-03-27T17:19:59.484Z,11.22
2023-03-27T17:22:26.820Z,11.37
2023-03-27T17:24:57.311Z,11.12
2023-03-27T17:27:28.456Z,10.73
2023-03-27T17:29:58.592Z,11.32
2023-03-27T17:32:28.717Z,11.14
2023-03-27T17:34:56.097Z,10.71
2023-03-27T17:37:24.029Z,11.30
2023-03-27T17:39:51.199Z,10.86
2023-03-27T17:42:21.086Z,10.83
2023-03-27T17:45:03.843Z,10.81
2023-03-27T17:47:31.682Z,10.98
2023-03-27T17:50:01.732Z,10.77
2023-03-27T17:52:29.795Z,10.90
2023-03-27T17:55:20.169Z,11.04
2023-03-27T17:57:53.111Z,10.68
2023-03-27T18:00:26.520Z,10.80
2023-03-27T18:03:13.508Z,10.69
2023-03-27T18:05:42.028Z,10.79
2023-03-27T18:08:11.146Z,10.42
2023-03-27T18:10:53.872Z,10.57
2023-03-27T18:13:20.666Z,10.23
2023-03-27T18:15:55.696Z,10.48
2023-03-27T18:18:23.126Z,10.55
2023-03-27T18:20:54.199Z,10.63
2023-03-27T18:23:24.185Z,10.42
2023-03-27T18:25:50.974Z,10.35
2023-03-27T18:28:17.856Z,10.43
2023-03-27T18:30:45.186Z,10.14
2023-03-27T18:33:12.000Z,10.16
2023-03-27T18:35:39.476Z,10.50
2023-03-27T18:38:07.153Z,10.23
2023-03-27T18:40:34.287Z,10.50
2023-03-27T18:43:01.083Z,10.39
2023-03-27T18:45:29.928Z,10.34
2023-03-27T18:47:57.390Z,10.34
2023-03-27T18:50:24.297Z,10.48
2023-03-27T18:52:51.351Z,10.34
2023-03-27T18:55:18.372Z,10.22
2023-03-27T18:57:45.572Z,10.44
2023-03-27T19:00:18.990Z,9.82
2023-03-27T19:02:48.702Z,10.00
2023-03-27T19:05:16.427Z,10.09
2023-03-27T19:07:44.982Z,9.82
2023-03-27T19:10:12.890Z,9.88
2023-03-27T19:12:39.558Z,9.94
2023-03-27T19:15:19.233Z,9.88
2023-03-27T19:17:46.799Z,9.91
2023-03-27T19:20:14.363Z,9.66
2023-03-27T19:22:41.321Z,10.07
2023-03-27T19:25:09.096Z,10.13
2023-03-27T19:27:39.423Z,10.13
2023-03-27T19:30:07.985Z,10.46
2023-03-27T19:32:34.885Z,10.63
2023-03-27T19:35:02.127Z,9.90
2023-03-27T19:37:30.025Z,9.49
2023-03-27T19:39:59.718Z,10.09
2023-03-27T19:42:28.947Z,10.21
2023-03-27T19:44:56.836Z,9.95
2023-03-27T19:47:24.089Z,9.99
2023-03-27T19:49:51.370Z,9.64
2023-03-27T19:52:24.573Z,9.61
2023-03-27T20:21:56.474Z,9.69
2023-03-27T20:24:26.657Z,9.37
2023-03-27T20:29:41.121Z,8.89
2023-03-27T20:32:08.934Z,8.81
2023-03-27T20:34:43.275Z,8.72
2023-03-27T20:37:12.155Z,8.47
2023-03-27T20:39:49.887Z,8.61
2023-03-27T20:42:18.251Z,8.76
2023-03-27T20:44:45.990Z,8.58
2023-03-27T20:47:15.222Z,8.55
2023-03-27T20:49:43.552Z,8.36
2023-03-27T20:52:18.204Z,8.09
2023-03-27T20:54:45.663Z,8.22
2023-03-27T20:57:12.539Z,7.87
2023-03-27T20:59:48.839Z,8.12
2023-03-27T21:02:19.331Z,8.16
2023-03-27T21:04:47.441Z,8.37
2023-03-27T21:07:17.030Z,8.07
2023-03-27T21:10:02.863Z,8.22
2023-03-27T21:12:30.654Z,7.96
2023-03-27T21:14:57.469Z,7.78
2023-03-27T21:17:24.627Z,7.53
2023-03-27T21:19:52.004Z,7.68
2023-03-27T21:22:18.905Z,7.32
2023-03-27T21:24:45.964Z,7.63
2023-03-27T21:27:13.654Z,7.40
2023-03-27T21:29:41.114Z,7.45
2023-03-27T21:32:08.213Z,7.61
2023-03-27T21:34:36.083Z,7.79
2023-03-27T21:37:03.044Z,7.76
2023-03-27T21:39:29.812Z,7.71
2023-03-27T21:44:39.366Z,7.75
2023-03-27T21:47:47.219Z,7.99
2023-03-27T21:50:14.700Z,8.04
2023-03-27T21:52:44.303Z,8.23
2023-03-27T21:55:11.069Z,8.11
2023-03-27T21:57:38.043Z,8.09
2023-03-27T22:00:07.861Z,7.86
2023-03-27T22:02:34.733Z,7.98
2023-03-27T22:05:05.123Z,7.96
2023-03-27T22:07:35.397Z,8.18
2023-03-27T22:10:03.636Z,8.12
2023-03-27T22:12:31.178Z,8.23
2023-03-27T22:14:58.454Z,8.32
2023-03-27T22:17:25.244Z,8.34
2023-03-27T22:19:52.513Z,8.09
2023-03-27T22:22:19.785Z,8.26
2023-03-27T22:24:50.419Z,8.12
2023-03-27T22:27:17.758Z,8.10
2023-03-27T22:29:47.085Z,7.88
2023-03-27T22:32:14.051Z,7.94
2023-03-27T22:34:41.150Z,8.01
2023-03-27T22:37:08.368Z,7.97
2023-03-27T22:39:35.465Z,8.16
2023-03-27T22:42:33.226Z,8.06
2023-03-27T22:45:00.498Z,8.01
2023-03-27T22:47:27.879Z,8.23
2023-03-27T22:49:56.008Z,8.26
2023-03-27T22:52:25.380Z,8.43
2023-03-27T22:54:52.553Z,8.33
2023-03-27T22:57:19.419Z,8.44
2023-03-27T22:59:48.942Z,8.25
2023-03-27T23:02:16.487Z,8.36
2023-03-27T23:04:51.017Z,8.56
2023-03-27T23:07:23.566Z,8.38
2023-03-27T23:10:05.252Z,8.42
2023-03-27T23:12:32.421Z,8.74
2023-03-27T23:14:59.109Z,8.68
2023-03-27T23:17:25.945Z,8.80
2023-03-27T23:19:52.834Z,8.56
2023-03-27T23:22:19.629Z,8.52
2023-03-27T23:24:46.844Z,8.37
2023-03-27T23:27:14.151Z,8.74
2023-03-27T23:29:40.846Z,8.37
2023-03-27T23:32:07.566Z,8.38
2023-03-27T23:34:34.633Z,8.62
2023-03-27T23:37:01.363Z,8.78
2023-03-27T23:39:28.393Z,8.61
2023-03-27T23:41:55.561Z,8.99
2023-03-27T23:44:22.405Z,8.64
2023-03-27T23:46:49.116Z,8.44
2023-03-27T23:49:16.533Z,8.43
2023-03-27T23:51:43.213Z,8.26
2023-03-27T23:54:09.963Z,8.27
2023-03-27T23:56:36.954Z,7.99
2023-03-27T23:59:03.691Z,7.77
